Time;durP1;ratioP1;P1;durP2;ratioP2;P2;SDS_P1;SDS_P2;PMS_P1;PMS_P2;Temp;Humidity;BMP_temperature;BMP_pressure;BME280_temperature;BME280_humidity;BME280_pressure;Samples;Min_cycle;Max_cycle;Signal;HPM_P1;HPM_P2
2023/05/27 00:02:02;;;;;;;4.50;2.53;;;;;;;17.23;64.32;98797.41;4201708;28;21192;-88
2023/05/27 00:04:07;;;;;;;4.87;3.10;;;;;;;17.18;62.75;98802.16;4186737;28;20669;-86
2023/05/27 00:06:11;;;;;;;5.03;2.17;;;;;;;17.19;64.60;98808.28;4206784;28;20736;-88
2023/05/27 00:08:14;;;;;;;5.60;2.87;;;;;;;17.20;63.56;98804.66;4197054;28;20633;-87
2023/05/27 00:10:17;;;;;;;4.77;3.00;;;;;;;17.22;62.93;98803.63;4202834;28;20724;-87
2023/05/27 00:12:20;;;;;;;7.33;3.10;;;;;;;17.27;63.60;98797.97;4188126;28;21288;-87
2023/05/27 00:14:24;;;;;;;8.57;3.70;;;;;;;17.23;63.12;98800.03;4183236;28;20704;-87
2023/05/27 00:16:27;;;;;;;6.13;2.93;;;;;;;17.19;62.97;98816.19;4190983;28;20610;-87
2023/05/27 00:18:32;;;;;;;7.73;2.77;;;;;;;17.21;63.21;98811.66;4198343;28;20646;-87
2023/05/27 00:20:37;;;;;;;7.40;3.20;;;;;;;17.19;63.05;98816.19;4198008;28;20636;-87
2023/05/27 00:22:41;;;;;;;8.83;3.10;;;;;;;17.19;63.38;98809.13;4195749;28;20646;-86
2023/05/27 00:24:44;;;;;;;9.23;3.27;;;;;;;17.22;64.37;98810.72;4197167;28;20698;-87
2023/05/27 00:26:47;;;;;;;9.00;3.23;;;;;;;17.22;64.96;98810.72;4187791;28;20635;-86
2023/05/27 00:28:51;;;;;;;8.53;3.30;;;;;;;17.14;64.66;98811.31;4185833;28;20637;-87
2023/05/27 00:30:54;;;;;;;5.20;2.67;;;;;;;17.12;63.53;98807.13;4184693;28;21240;-86
2023/05/27 00:32:58;;;;;;;6.10;3.17;;;;;;;17.12;63.98;98817.66;4189972;28;20629;-86
2023/05/27 00:35:01;;;;;;;8.33;3.20;;;;;;;17.03;65.13;98808.72;4201480;28;20665;-87
2023/05/27 00:37:08;;;;;;;4.30;2.57;;;;;;;17.07;63.65;98814.59;4182127;28;21016;-87
2023/05/27 00:39:11;;;;;;;4.40;2.50;;;;;;;17.07;64.47;98809.31;4202274;28;20669;-87
2023/05/27 00:41:14;;;;;;;4.57;2.80;;;;;;;17.09;64.19;98812.63;4190758;28;20613;-87
2023/05/27 00:43:17;;;;;;;7.57;3.00;;;;;;;17.07;65.66;98812.78;4197447;28;20775;-87
2023/05/27 00:45:22;;;;;;;7.20;3.10;;;;;;;17.08;65.61;98806.53;4189990;28;20621;-87
2023/05/27 00:47:28;;;;;;;6.70;3.07;;;;;;;17.06;65.40;98807.63;4201262;28;20702;-87
2023/05/27 00:49:31;;;;;;;5.50;3.03;;;;;;;17.06;66.04;98812.91;4188294;28;21189;-86
2023/05/27 00:51:35;;;;;;;5.40;2.53;;;;;;;16.98;65.40;98807.44;4213064;28;20726;-86
2023/05/27 00:53:41;;;;;;;6.43;3.33;;;;;;;16.99;65.73;98809.13;4192816;28;20634;-86
2023/05/27 00:55:44;;;;;;;6.17;2.87;;;;;;;17.00;65.40;98802.84;4184458;28;20633;-87
2023/05/27 00:57:48;;;;;;;4.63;2.90;;;;;;;17.03;65.28;98807.88;4203143;28;20716;-87
2023/05/27 00:59:51;;;;;;;6.73;2.90;;;;;;;17.02;64.52;98800.94;4198957;28;20680;-86
2023/05/27 01:01:54;;;;;;;6.60;2.90;;;;;;;17.03;67.13;98802.59;4183786;28;20633;-86
2023/05/27 01:03:57;;;;;;;5.63;3.00;;;;;;;17.00;65.89;98808.13;4194499;28;20640;-86
2023/05/27 01:06:08;;;;;;;8.17;3.10;;;;;;;16.94;65.48;98800.72;4190741;28;20672;-87
2023/05/27 01:08:30;;;;;;;10.70;3.20;;;;;;;16.94;66.69;98800.72;4184585;28;20640;-87
2023/05/27 01:10:38;;;;;;;6.87;3.23;;;;;;;16.94;65.31;98792.00;4199962;28;20632;-87
2023/05/27 01:12:50;;;;;;;6.47;3.00;;;;;;;16.93;66.44;98791.16;4200860;28;20632;-87
2023/05/27 01:14:55;;;;;;;4.50;2.50;;;;;;;16.96;65.57;98795.31;4195304;28;20646;-86
2023/05/27 01:17:00;;;;;;;8.63;3.20;;;;;;;16.89;64.76;98783.63;4197179;28;21145;-86
2023/05/27 01:19:07;;;;;;;8.63;2.83;;;;;;;16.83;65.75;98798.16;4186012;28;20636;-87
2023/05/27 01:21:12;;;;;;;9.10;3.23;;;;;;;16.82;65.71;98795.63;4199092;28;20624;-86
2023/05/27 01:23:17;;;;;;;6.87;3.00;;;;;;;16.84;65.73;98793.69;4196651;28;20645;-87
2023/05/27 01:25:21;;;;;;;6.30;3.17;;;;;;;16.82;65.37;98788.56;4205529;28;20618;-87
2023/05/27 01:27:25;;;;;;;8.40;2.90;;;;;;;16.78;65.98;98791.56;4203166;28;20625;-87
2023/05/27 01:29:29;;;;;;;5.83;3.10;;;;;;;16.73;67.64;98791.13;4185139;28;20623;-87
2023/05/27 01:31:36;;;;;;;6.50;3.17;;;;;;;16.71;65.41;98785.97;4205645;28;20639;-87
2023/05/27 01:33:43;;;;;;;7.17;3.27;;;;;;;16.72;66.29;98787.66;4182063;28;21065;-86
2023/05/27 01:35:50;;;;;;;4.97;2.87;;;;;;;16.69;67.48;98785.28;4186766;28;20661;-86
2023/05/27 01:37:55;;;;;;;7.30;3.13;;;;;;;16.69;67.81;98773.91;4182832;28;20647;-86
2023/05/27 01:40:05;;;;;;;5.47;2.77;;;;;;;16.65;67.44;98780.38;4198388;28;21045;-86
2023/05/27 01:42:09;;;;;;;7.57;3.60;;;;;;;16.63;65.85;98777.88;4198171;28;20631;-87
2023/05/27 01:44:12;;;;;;;5.47;3.00;;;;;;;16.63;67.67;98777.03;4198551;28;21605;-86
2023/05/27 01:46:15;;;;;;;10.73;3.30;;;;;;;16.57;68.10;98774.91;4201840;28;20639;-86
2023/05/27 01:48:19;;;;;;;13.07;3.00;;;;;;;16.73;66.34;98777.94;4201912;28;20732;-87
2023/05/27 01:50:22;;;;;;;5.90;2.90;;;;;;;16.56;67.21;98778.47;4184675;28;21019;-87
2023/05/27 01:52:26;;;;;;;6.70;3.07;;;;;;;16.49;66.72;98776.47;4197289;28;20638;-87
2023/05/27 01:54:29;;;;;;;7.10;2.73;;;;;;;16.46;68.17;98769.66;4200594;28;21337;-86
2023/05/27 01:56:33;;;;;;;6.00;2.93;;;;;;;16.43;69.01;98769.06;4191140;28;21036;-86
2023/05/27 01:58:37;;;;;;;6.47;3.03;;;;;;;16.42;68.61;98770.88;4198685;28;20709;-87
2023/05/27 02:00:40;;;;;;;6.70;3.50;;;;;;;16.38;69.02;98772.06;4190746;28;20644;-87
2023/05/27 02:02:43;;;;;;;8.43;3.10;;;;;;;16.33;69.65;98770.78;4182393;28;20631;-87
2023/05/27 02:04:49;;;;;;;6.30;2.90;;;;;;;16.30;68.05;98771.84;4184912;28;20649;-87
2023/05/27 02:06:52;;;;;;;7.70;3.10;;;;;;;16.28;69.76;98772.94;4185156;28;20710;-87
2023/05/27 02:08:55;;;;;;;6.70;2.93;;;;;;;16.22;69.17;98765.53;4203087;28;20635;-87
2023/05/27 02:10:59;;;;;;;6.77;3.10;;;;;;;16.19;68.31;98769.22;4183269;28;21070;-86
2023/05/27 02:13:04;;;;;;;5.40;2.87;;;;;;;16.22;69.27;98760.25;4186660;28;20686;-87
2023/05/27 02:15:08;;;;;;;7.00;2.87;;;;;;;16.19;69.01;98768.38;4183219;28;20659;-87
2023/05/27 02:17:14;;;;;;;8.37;2.50;;;;;;;16.17;69.06;98770.28;4198071;28;20744;-87
2023/05/27 02:19:20;;;;;;;10.93;3.77;;;;;;;16.09;69.93;98759.56;4180581;28;20685;-86
2023/05/27 02:21:23;;;;;;;5.60;3.00;;;;;;;16.08;67.66;98768.41;4198872;28;20731;-86
2023/05/27 02:23:26;;;;;;;6.33;3.07;;;;;;;16.08;69.78;98763.13;4196436;28;20667;-87
2023/05/27 02:25:29;;;;;;;8.13;3.17;;;;;;;16.08;69.70;98769.22;4192730;28;20644;-86
2023/05/27 02:27:33;;;;;;;6.80;3.87;;;;;;;16.08;68.94;98768.41;4194480;28;20644;-87
2023/05/27 02:29:37;;;;;;;6.87;3.20;;;;;;;16.09;70.85;98764.81;4200297;28;20656;-86
2023/05/27 02:31:41;;;;;;;8.30;3.60;;;;;;;16.09;68.88;98770.06;4195458;28;20625;-87
2023/05/27 02:33:44;;;;;;;6.50;3.10;;;;;;;16.08;68.92;98758.69;4188113;28;21015;-86
2023/05/27 02:35:48;;;;;;;7.50;3.57;;;;;;;16.04;71.07;98757.28;4198486;28;21056;-87
2023/05/27 02:37:51;;;;;;;5.40;2.67;;;;;;;16.00;70.33;98765.53;4185066;28;20653;-86
2023/05/27 02:39:56;;;;;;;6.70;3.00;;;;;;;15.97;70.49;98764.97;4198897;28;20640;-87
2023/05/27 02:41:59;;;;;;;8.97;3.73;;;;;;;15.98;70.65;98763.97;4193670;28;20652;-87
2023/05/27 02:44:03;;;;;;;10.37;2.90;;;;;;;15.98;70.29;98762.16;4199266;28;20663;-86
2023/05/27 02:46:07;;;;;;;6.43;3.10;;;;;;;15.98;68.92;98763.97;4194391;28;21226;-86
2023/05/27 02:48:11;;;;;;;5.57;3.20;;;;;;;15.96;70.07;98761.47;4188481;28;20625;-87
2023/05/27 02:50:14;;;;;;;9.57;3.53;;;;;;;15.99;68.36;98768.28;4187667;28;20637;-87
2023/05/27 02:52:17;;;;;;;7.37;2.53;;;;;;;15.95;69.46;98765.06;4188351;28;21241;-86
2023/05/27 02:54:21;;;;;;;5.40;2.70;;;;;;;15.92;68.36;98772.34;4190522;28;20639;-86
2023/05/27 02:56:25;;;;;;;7.60;3.07;;;;;;;15.89;68.96;98775.22;4191382;28;21027;-87
2023/05/27 02:58:29;;;;;;;10.87;3.33;;;;;;;15.84;68.33;98775.59;4198089;28;20732;-87
2023/05/27 03:00:33;;;;;;;6.97;3.10;;;;;;;15.88;70.25;98774.41;4193624;28;20727;-87
2023/05/27 03:02:37;;;;;;;6.50;3.10;;;;;;;15.78;68.42;98768.16;4184125;28;21403;-87
2023/05/27 03:04:40;;;;;;;10.60;3.63;;;;;;;15.77;69.96;98770.91;4182486;28;20634;-86
2023/05/27 03:06:43;;;;;;;7.57;3.50;;;;;;;15.75;70.24;98759.69;4199514;28;21309;-87
2023/05/27 03:08:47;;;;;;;5.90;3.33;;;;;;;15.72;68.82;98770.44;4195192;28;20629;-86
2023/05/27 03:10:50;;;;;;;5.70;2.90;;;;;;;15.65;70.93;98763.97;4182752;28;20627;-87
2023/05/27 03:12:54;;;;;;;6.53;3.10;;;;;;;15.61;69.58;98763.41;4199556;28;20635;-87
2023/05/27 03:14:59;;;;;;;6.00;2.77;;;;;;;15.62;70.97;98759.81;4189736;28;21202;-87
2023/05/27 03:17:05;;;;;;;8.17;3.67;;;;;;;15.61;70.81;98760.75;4186015;28;21256;-87
2023/05/27 03:19:10;;;;;;;11.60;3.80;;;;;;;15.58;70.66;98774.16;4180661;28;20624;-87
2023/05/27 03:21:14;;;;;;;8.43;3.17;;;;;;;15.51;69.24;98758.13;4188592;28;20714;-87
2023/05/27 03:23:19;;;;;;;5.67;3.50;;;;;;;15.47;69.62;98764.56;4182851;28;21209;-87
2023/05/27 03:25:26;;;;;;;6.93;3.47;;;;;;;15.52;70.05;98772.97;4179892;28;20694;-87
2023/05/27 03:27:29;;;;;;;6.07;3.20;;;;;;;15.43;69.49;98768.41;4193474;28;20623;-87
2023/05/27 03:29:33;;;;;;;8.03;3.40;;;;;;;15.43;70.07;98771.88;4188239;28;20641;-87
2023/05/27 03:31:36;;;;;;;5.90;2.80;;;;;;;15.48;69.70;98766.25;4198542;28;20642;-87
2023/05/27 03:33:44;;;;;;;8.70;3.10;;;;;;;15.48;71.42;98772.34;4196119;28;20635;-87
2023/05/27 03:35:48;;;;;;;6.60;3.50;;;;;;;15.50;71.16;98777.50;4182763;28;20633;-87
2023/05/27 03:37:52;;;;;;;8.37;3.27;;;;;;;15.50;69.91;98772.22;4189930;28;20671;-87
2023/05/27 03:39:57;;;;;;;7.53;3.27;;;;;;;15.51;70.98;98768.66;4192097;28;20632;-86
2023/05/27 03:42:00;;;;;;;6.90;3.23;;;;;;;15.51;70.82;98764.22;4189821;28;20637;-87
2023/05/27 03:44:03;;;;;;;6.87;3.43;;;;;;;15.48;71.00;98763.63;4189369;28;21002;-88
2023/05/27 03:46:08;;;;;;;8.20;3.77;;;;;;;15.46;70.39;98762.94;4173100;28;20635;-87
2023/05/27 03:48:11;;;;;;;6.77;3.10;;;;;;;15.49;69.07;98763.50;4178936;28;21725;-87
2023/05/27 03:50:15;;;;;;;7.27;3.23;;;;;;;15.51;69.94;98755.50;4201156;28;20630;-87
2023/05/27 03:52:19;;;;;;;6.10;3.00;;;;;;;15.48;70.97;98761.84;4186501;28;20777;-87
2023/05/27 03:54:23;;;;;;;10.90;3.00;;;;;;;15.48;70.92;98761.00;4205437;28;20639;-87
2023/05/27 03:56:27;;;;;;;7.10;3.33;;;;;;;15.51;71.23;98768.66;4187709;28;21234;-87
2023/05/27 03:58:30;;;;;;;10.00;3.73;;;;;;;15.54;71.15;98771.88;4187899;28;20647;-87
2023/05/27 04:00:35;;;;;;;9.97;3.30;;;;;;;15.56;70.04;98773.44;4178806;28;20649;-87
2023/05/27 04:02:38;;;;;;;9.10;3.60;;;;;;;15.59;69.69;98773.22;4183421;28;20672;-87
2023/05/27 04:04:42;;;;;;;6.17;3.33;;;;;;;15.59;70.61;98777.59;4201372;28;20631;-87
2023/05/27 04:06:45;;;;;;;6.50;3.57;;;;;;;15.64;69.14;98772.84;4186545;28;21370;-87
2023/05/27 04:08:52;;;;;;;6.57;3.10;;;;;;;15.61;69.10;98773.91;4203278;28;21185;-87
2023/05/27 04:10:56;;;;;;;9.63;3.20;;;;;;;15.63;71.04;98777.25;4185341;28;20985;-87
2023/05/27 04:13:00;;;;;;;6.47;3.03;;;;;;;15.68;68.92;98782.16;4199479;28;20786;-87
2023/05/27 04:15:04;;;;;;;7.43;3.10;;;;;;;15.63;69.89;98772.00;4184793;28;20663;-86
2023/05/27 04:17:08;;;;;;;7.33;3.73;;;;;;;15.62;68.43;98774.75;4183472;28;20668;-87
2023/05/27 04:19:11;;;;;;;8.93;3.30;;;;;;;15.59;70.32;98773.22;4180631;28;20642;-87
2023/05/27 04:21:14;;;;;;;7.03;2.80;;;;;;;15.62;69.84;98774.75;4182802;28;20652;-87
2023/05/27 04:23:18;;;;;;;6.37;3.10;;;;;;;15.61;69.89;98779.19;4183025;28;20622;-87
2023/05/27 04:25:22;;;;;;;7.60;3.93;;;;;;;15.63;69.38;98779.88;4182378;28;20629;-86
2023/05/27 04:27:41;;;;;;;8.50;4.13;;;;;;;15.70;70.40;98781.09;4185438;28;20626;-87
2023/05/27 04:29:45;;;;;;;5.90;2.73;;;;;;;15.77;71.97;98792.81;4183343;28;21016;-87
2023/05/27 04:31:50;;;;;;;7.10;3.30;;;;;;;15.83;70.43;98783.59;4183924;28;20643;-87
2023/05/27 04:33:56;;;;;;;5.77;3.30;;;;;;;15.85;71.39;98787.78;4184750;28;20636;-87
2023/05/27 04:35:59;;;;;;;5.00;2.90;;;;;;;15.85;69.56;98786.97;4197796;28;20632;-87
2023/05/27 04:38:07;;;;;;;5.37;3.40;;;;;;;15.87;68.79;98795.56;4180511;28;20636;-87
2023/05/27 04:40:23;;;;;;;5.93;2.67;;;;;;;15.90;69.88;98790.06;4186220;28;20642;-87
2023/05/27 04:42:48;;;;;;;7.00;3.20;;;;;;;15.84;68.22;98793.19;4190593;28;21017;-87
2023/05/27 04:44:51;;;;;;;6.40;3.00;;;;;;;15.87;68.58;98792.94;4200363;28;20628;-87
2023/05/27 04:46:54;;;;;;;7.03;3.20;;;;;;;15.94;70.21;98802.03;4202148;28;20666;-87
2023/05/27 04:48:58;;;;;;;9.33;2.90;;;;;;;15.98;69.05;98790.28;4192465;28;20640;-87
2023/05/27 04:51:01;;;;;;;6.77;3.10;;;;;;;15.86;69.14;98789.47;4193909;28;20668;-86
2023/05/27 04:53:05;;;;;;;7.60;3.97;;;;;;;15.93;69.09;98787.19;4202636;28;20635;-87
2023/05/27 04:55:11;;;;;;;7.83;3.40;;;;;;;15.99;69.01;98787.53;4181350;28;20613;-87
2023/05/27 04:57:18;;;;;;;6.33;3.10;;;;;;;16.02;70.14;98795.19;4195539;28;20649;-87
2023/05/27 04:59:22;;;;;;;6.43;2.53;;;;;;;16.09;68.33;98789.31;4196100;28;21531;-87
2023/05/27 05:01:27;;;;;;;7.20;3.00;;;;;;;16.07;68.00;98788.63;4196946;28;20638;-87
2023/05/27 05:03:50;;;;;;;8.77;3.40;;;;;;;16.10;67.98;98788.38;4180816;28;20691;-87
2023/05/27 05:05:55;;;;;;;6.20;3.00;;;;;;;16.15;68.95;98785.38;4195779;28;20656;-87
2023/05/27 05:07:59;;;;;;;6.17;2.83;;;;;;;16.19;67.84;98792.91;4202735;28;20670;-87
2023/05/27 05:10:02;;;;;;;11.13;3.10;;;;;;;16.16;67.39;98795.78;4205466;28;20750;-86
2023/05/27 05:12:10;;;;;;;6.80;3.30;;;;;;;16.08;68.07;98792.06;4184601;28;20615;-86
2023/05/27 05:14:18;;;;;;;8.00;3.40;;;;;;;15.99;67.17;98779.66;4181859;28;20698;-88
2023/05/27 05:16:22;;;;;;;8.20;2.90;;;;;;;16.06;68.21;98797.47;4198945;28;20630;-87
2023/05/27 05:18:26;;;;;;;8.13;3.50;;;;;;;15.98;68.42;98793.75;4184820;28;20679;-86
2023/05/27 05:20:30;;;;;;;10.13;3.67;;;;;;;15.95;67.51;98790.53;4184903;28;20638;-86
2023/05/27 05:22:33;;;;;;;5.80;3.27;;;;;;;16.07;69.39;98795.66;4185484;28;20632;-87
2023/05/27 05:24:36;;;;;;;5.67;2.73;;;;;;;16.09;68.53;98791.13;4187830;28;20801;-87
2023/05/27 05:26:39;;;;;;;7.70;3.10;;;;;;;16.18;67.18;98795.66;4187700;28;20666;-87
2023/05/27 05:28:43;;;;;;;6.00;2.60;;;;;;;16.19;68.74;98798.19;4197754;28;21378;-87
2023/05/27 05:30:48;;;;;;;5.70;2.60;;;;;;;16.25;66.55;98796.88;4194379;28;20736;-86
2023/05/27 05:32:53;;;;;;;7.67;3.00;;;;;;;16.37;67.91;98801.16;4200513;28;20631;-87
2023/05/27 05:34:57;;;;;;;7.57;3.27;;;;;;;16.47;68.43;98805.56;4183751;28;21703;-87
2023/05/27 05:37:01;;;;;;;6.13;3.00;;;;;;;16.55;67.07;98801.38;4186941;28;20655;-87
2023/05/27 05:39:05;;;;;;;6.93;3.23;;;;;;;16.77;67.74;98821.53;4187555;28;20706;-87
2023/05/27 05:41:10;;;;;;;6.87;2.93;;;;;;;16.95;66.24;98825.31;4185754;28;20640;-86
2023/05/27 05:43:13;;;;;;;6.57;3.33;;;;;;;16.98;66.70;98820.59;4188467;28;20634;-86
2023/05/27 05:45:16;;;;;;;6.00;2.83;;;;;;;17.18;66.96;98817.16;4195467;28;20660;-86
2023/05/27 05:47:22;;;;;;;22.47;3.60;;;;;;;17.47;64.70;98817.25;4191748;28;20634;-86
2023/05/27 05:49:34;;;;;;;7.93;3.17;;;;;;;17.79;66.05;98820.63;4180114;28;20672;-87
2023/05/27 05:51:38;;;;;;;6.57;3.20;;;;;;;18.15;64.98;98822.78;4181168;28;21241;-87
2023/05/27 05:53:42;;;;;;;4.43;2.80;;;;;;;18.41;63.66;98829.25;4196946;28;20685;-87
2023/05/27 05:55:46;;;;;;;8.07;3.07;;;;;;;18.65;62.37;98830.56;4178471;28;20657;-86
2023/05/27 05:57:50;;;;;;;6.07;2.93;;;;;;;18.83;62.41;98832.41;4182952;28;21217;-86
2023/05/27 05:59:54;;;;;;;8.07;3.30;;;;;;;18.92;61.61;98826.28;4187572;28;20635;-87
2023/05/27 06:01:57;;;;;;;6.73;3.13;;;;;;;18.96;62.76;98835.63;4190102;28;20670;-86
2023/05/27 06:04:06;;;;;;;8.37;3.20;;;;;;;19.15;62.74;98840.94;4202622;28;21259;-86
2023/05/27 06:06:14;;;;;;;9.07;2.93;;;;;;;19.23;61.46;98835.78;4203617;28;20669;-86
2023/05/27 06:08:34;;;;;;;8.50;3.47;;;;;;;19.27;62.11;98839.84;4186822;28;20990;-86
2023/05/27 06:10:45;;;;;;;7.87;2.90;;;;;;;19.51;61.93;98844.53;4190466;28;22355;-86
2023/05/27 06:12:48;;;;;;;5.67;3.20;;;;;;;19.73;59.78;98835.47;4188989;28;20628;-86
2023/05/27 06:14:51;;;;;;;6.17;2.77;;;;;;;19.69;59.11;98837.53;4203223;28;21063;-86
2023/05/27 06:17:02;;;;;;;5.13;2.50;;;;;;;19.91;60.63;98834.59;4186978;28;20633;-86
2023/05/27 06:19:07;;;;;;;6.03;3.20;;;;;;;20.02;58.17;98831.78;4204029;28;20669;-86
2023/05/27 06:21:10;;;;;;;5.97;3.30;;;;;;;20.03;59.96;98830.81;4204435;28;20638;-86
2023/05/27 06:23:33;;;;;;;5.17;3.07;;;;;;;20.23;60.38;98841.16;4203702;28;20626;-86
2023/05/27 06:25:44;;;;;;;8.00;3.57;;;;;;;20.53;59.57;98844.34;4182003;28;20639;-86
2023/05/27 06:27:47;;;;;;;5.90;2.60;;;;;;;20.78;59.13;98846.34;4203074;28;20638;-86
2023/05/27 06:29:51;;;;;;;4.37;3.07;;;;;;;20.83;58.85;98844.06;4216747;28;21264;-86
2023/05/27 06:32:04;;;;;;;6.20;2.87;;;;;;;20.98;59.84;98846.06;4201641;28;21161;-86
2023/05/27 06:34:09;;;;;;;4.47;2.63;;;;;;;21.04;58.37;98847.28;4183089;28;20752;-86
2023/05/27 06:36:12;;;;;;;5.97;3.40;;;;;;;21.09;57.33;98842.34;4205409;28;20669;-86
2023/05/27 06:38:17;;;;;;;10.60;3.87;;;;;;;21.17;57.96;98848.59;4196127;28;20760;-86
2023/05/27 06:40:24;;;;;;;5.13;2.93;;;;;;;21.43;58.97;98836.22;4186316;28;20820;-86
2023/05/27 06:42:28;;;;;;;5.23;2.70;;;;;;;21.33;56.88;98835.44;4201422;28;20653;-85
2023/05/27 06:44:39;;;;;;;5.63;2.70;;;;;;;21.53;58.08;98840.47;4200831;28;20639;-86
2023/05/27 06:46:53;;;;;;;4.93;2.70;;;;;;;21.82;57.82;98835.69;4203209;28;20647;-86
2023/05/27 06:49:04;;;;;;;8.57;3.00;;;;;;;22.07;56.93;98845.47;4199917;28;20628;-87
2023/05/27 06:51:10;;;;;;;8.47;3.20;;;;;;;22.24;56.57;98848.13;4203016;28;21409;-87
2023/05/27 06:53:14;;;;;;;5.33;2.83;;;;;;;22.01;57.38;98839.00;4209872;28;20628;-86
2023/05/27 06:55:29;;;;;;;5.13;2.60;;;;;;;22.27;56.06;98845.97;4202444;28;20672;-87
2023/05/27 06:57:50;;;;;;;6.60;3.37;;;;;;;22.47;56.92;98849.22;4203625;28;20653;-89
2023/05/27 07:00:08;;;;;;;6.63;2.80;;;;;;;22.65;54.71;98848.13;4202996;28;20645;-86
2023/05/27 07:02:20;;;;;;;7.20;2.90;;;;;;;22.71;54.71;98839.50;4174425;28;20634;-86
2023/05/27 07:04:23;;;;;;;7.60;3.10;;;;;;;22.79;55.08;98842.16;4195359;28;20633;-86
2023/05/27 07:06:31;;;;;;;4.40;2.57;;;;;;;22.91;54.97;98846.19;4183426;28;21243;-86
2023/05/27 07:08:34;;;;;;;5.63;2.80;;;;;;;23.06;56.40;98849.94;4200470;28;20639;-86
2023/05/27 07:10:59;;;;;;;4.77;2.70;;;;;;;23.07;54.10;98848.94;4194850;28;21193;-87
2023/05/27 07:13:02;;;;;;;5.13;2.50;;;;;;;22.87;55.47;98832.41;4184479;28;20647;-88
2023/05/27 07:15:16;;;;;;;7.30;2.97;;;;;;;23.13;55.63;98845.63;4194498;28;20640;-87
2023/05/27 07:17:19;;;;;;;7.03;2.73;;;;;;;23.21;54.75;98849.97;4199635;28;20643;-87
2023/05/27 07:19:23;;;;;;;10.77;3.10;;;;;;;23.19;54.06;98848.47;4192226;28;20656;-87
2023/05/27 07:21:33;;;;;;;9.47;3.67;;;;;;;23.01;54.78;98838.94;4192833;28;20723;-87
2023/05/27 07:23:40;;;;;;;5.33;2.97;;;;;;;23.08;54.38;98840.78;4205620;28;20640;-87
2023/05/27 07:26:04;;;;;;;6.13;3.10;;;;;;;23.22;55.48;98842.81;4196896;28;20677;-87
2023/05/27 07:28:07;;;;;;;5.70;2.90;;;;;;;23.44;54.96;98845.66;4201571;28;20637;-87
2023/05/27 07:30:17;;;;;;;9.47;3.63;;;;;;;23.40;54.70;98841.66;4178205;28;20740;-84
2023/05/27 07:32:27;;;;;;;5.50;3.50;;;;;;;23.54;55.15;98840.16;4182047;28;20632;-85
2023/05/27 07:34:30;;;;;;;6.33;3.17;;;;;;;23.55;54.93;98836.50;4199960;28;20981;-85
2023/05/27 07:36:35;;;;;;;8.77;3.50;;;;;;;23.75;54.83;98844.00;4198395;28;20637;-86
2023/05/27 07:38:39;;;;;;;7.13;3.20;;;;;;;23.71;53.65;98832.84;4179448;28;20658;-87
2023/05/27 07:40:42;;;;;;;5.00;2.87;;;;;;;23.55;54.27;98826.66;4195620;28;21061;-87
2023/05/27 07:42:45;;;;;;;7.97;3.57;;;;;;;23.36;53.93;98820.84;4193143;28;20639;-85
2023/05/27 07:44:48;;;;;;;5.53;2.93;;;;;;;23.44;54.40;98823.50;4175113;28;20626;-85
2023/05/27 07:46:52;;;;;;;6.07;3.53;;;;;;;23.52;53.62;98832.31;4194180;28;20748;-86
2023/05/27 07:48:55;;;;;;;5.20;3.10;;;;;;;23.30;54.38;98818.84;4184604;28;20641;-87
2023/05/27 07:51:00;;;;;;;5.53;3.10;;;;;;;23.25;54.30;98818.50;4183036;28;20638;-85
2023/05/27 07:53:06;;;;;;;5.10;3.10;;;;;;;23.51;55.75;98822.66;4179002;28;20636;-82
2023/05/27 07:55:11;;;;;;;5.27;3.10;;;;;;;23.47;54.93;98820.50;4176628;28;20649;-83
2023/05/27 07:57:16;;;;;;;11.73;4.00;;;;;;;23.33;54.60;98811.38;4197231;28;20645;-83
2023/05/27 07:59:19;;;;;;;5.53;3.27;;;;;;;23.54;54.87;98818.84;4185222;28;20667;-84
2023/05/27 08:01:22;;;;;;;5.93;3.30;;;;;;;23.92;55.83;98826.97;4184315;28;20692;-82
2023/05/27 08:03:28;;;;;;;5.13;2.83;;;;;;;24.04;55.27;98822.97;4201438;28;20637;-82
2023/05/27 08:05:50;;;;;;;6.83;3.10;;;;;;;24.22;54.26;98830.59;4196332;28;20657;-83
2023/05/27 08:08:17;;;;;;;6.57;3.20;;;;;;;24.50;55.88;98825.69;4198072;28;20732;-84
2023/05/27 08:10:40;;;;;;;5.40;3.53;;;;;;;24.42;53.72;98815.88;4197466;28;20628;-82
2023/05/27 08:13:03;;;;;;;7.10;3.30;;;;;;;24.36;55.07;98811.22;4201943;28;20642;-84
2023/05/27 08:15:15;;;;;;;10.47;3.83;;;;;;;24.57;54.21;98818.63;4178408;28;20659;-83
2023/05/27 08:17:36;;;;;;;8.70;3.97;;;;;;;24.14;54.12;98802.28;4197460;28;20641;-83
2023/05/27 08:19:45;;;;;;;6.53;3.57;;;;;;;24.02;54.12;98798.31;4193078;28;20664;-84
2023/05/27 08:22:09;;;;;;;5.30;3.30;;;;;;;24.22;55.14;98803.06;4193907;28;20642;-84
2023/05/27 08:24:33;;;;;;;4.97;3.20;;;;;;;24.49;53.88;98808.84;4190349;28;21277;-82
2023/05/27 08:27:05;;;;;;;6.83;3.50;;;;;;;24.44;54.83;98805.03;4193609;28;20645;-85
2023/05/27 08:29:15;;;;;;;5.70;3.33;;;;;;;24.60;53.42;98803.13;4199115;28;20983;-85
2023/05/27 08:31:38;;;;;;;5.77;3.30;;;;;;;24.48;54.55;98795.69;4188645;28;20645;-85
2023/05/27 08:33:41;;;;;;;5.77;3.73;;;;;;;24.66;54.27;98797.09;4199450;28;20739;-85
2023/05/27 08:35:45;;;;;;;6.33;3.20;;;;;;;24.70;52.52;98788.56;4212814;28;20638;-87
2023/05/27 08:37:48;;;;;;;5.47;3.13;;;;;;;24.73;54.44;98792.69;4187390;28;20666;-83
2023/05/27 08:39:54;;;;;;;6.97;3.80;;;;;;;24.75;52.71;98794.19;4182981;28;20659;-85
2023/05/27 08:42:15;;;;;;;4.40;3.07;;;;;;;24.68;53.77;98785.22;4185985;28;20635;-85
2023/05/27 08:44:18;;;;;;;8.07;4.10;;;;;;;24.85;54.49;98785.94;4185947;28;20631;-85
2023/05/27 08:46:33;;;;;;;6.40;3.67;;;;;;;24.68;53.53;98787.06;4183293;28;20676;-86
2023/05/27 08:48:36;;;;;;;4.87;3.07;;;;;;;24.71;53.35;98768.03;4184604;28;20653;-86
2023/05/27 08:50:39;;;;;;;6.67;3.60;;;;;;;24.76;53.67;98776.31;4192995;28;21244;-86
2023/05/27 08:52:46;;;;;;;4.57;3.50;;;;;;;24.62;52.77;98781.59;4194760;28;20631;-84
2023/05/27 08:54:52;;;;;;;7.80;3.40;;;;;;;24.64;54.47;98775.06;4191947;28;20636;-86
2023/05/27 08:56:58;;;;;;;7.77;3.60;;;;;;;24.88;54.07;98770.44;4189712;28;20741;-86
2023/05/27 08:59:02;;;;;;;6.40;3.73;;;;;;;24.78;53.83;98766.31;4173204;28;21636;-87
2023/05/27 09:01:05;;;;;;;4.90;3.70;;;;;;;24.61;53.73;98767.41;4136667;28;20738;-87
2023/05/27 09:03:10;;;;;;;7.20;3.67;;;;;;;24.60;54.09;98763.09;4178079;28;20633;-86
2023/05/27 09:05:15;;;;;;;5.37;3.53;;;;;;;24.74;55.31;98757.00;4199994;28;21225;-86
2023/05/27 09:07:21;;;;;;;8.50;3.90;;;;;;;25.02;54.64;98764.34;4192517;28;20687;-87
2023/05/27 09:09:24;;;;;;;7.70;3.40;;;;;;;25.09;53.33;98764.47;4193796;28;20618;-86
2023/05/27 09:11:30;;;;;;;8.07;4.03;;;;;;;25.17;54.41;98757.22;4189156;28;20639;-86
2023/05/27 09:13:35;;;;;;;8.57;3.90;;;;;;;25.20;53.46;98751.53;4182187;28;21639;-87
2023/05/27 09:15:38;;;;;;;6.83;3.53;;;;;;;24.92;53.37;98754.88;4197164;28;21579;-84
2023/05/27 09:17:42;;;;;;;5.57;3.60;;;;;;;24.93;53.21;98759.22;4184958;28;20679;-87
2023/05/27 09:19:46;;;;;;;6.67;3.70;;;;;;;24.93;54.39;98756.53;4187713;28;20666;-86
2023/05/27 09:21:51;;;;;;;7.70;4.07;;;;;;;24.86;53.29;98748.38;4197260;28;20636;-87
2023/05/27 09:23:57;;;;;;;7.33;4.17;;;;;;;24.94;53.45;98742.16;4197351;28;20661;-87
2023/05/27 09:26:01;;;;;;;8.93;3.77;;;;;;;24.87;53.40;98735.91;4198581;28;20639;-85
2023/05/27 09:28:05;;;;;;;6.50;3.80;;;;;;;24.77;52.98;98740.63;4190679;28;20636;-86
2023/05/27 09:30:11;;;;;;;5.87;4.03;;;;;;;24.73;52.98;98733.97;4190375;28;21147;-87
2023/05/27 09:32:24;;;;;;;5.70;3.53;;;;;;;24.66;53.73;98731.19;4185280;28;20650;-88
2023/05/27 09:34:29;;;;;;;6.33;4.33;;;;;;;24.83;54.15;98731.91;4197500;28;20629;-86
2023/05/27 09:36:32;;;;;;;5.93;3.80;;;;;;;25.05;55.28;98739.97;4198967;28;21220;-88
2023/05/27 09:38:36;;;;;;;6.27;3.47;;;;;;;25.05;52.86;98739.09;4200687;28;20637;-89
2023/05/27 09:40:41;;;;;;;5.43;3.83;;;;;;;25.06;53.22;98730.09;4198132;28;20669;-88
2023/05/27 09:42:45;;;;;;;7.67;4.60;;;;;;;24.97;53.85;98728.47;4187445;28;20768;-88
2023/05/27 09:44:49;;;;;;;6.63;4.73;;;;;;;25.06;52.93;98727.41;4185693;28;20718;-88
2023/05/27 09:46:54;;;;;;;8.00;4.40;;;;;;;24.94;52.77;98729.66;4196593;28;20631;-87
2023/05/27 09:48:59;;;;;;;12.70;4.30;;;;;;;24.95;54.45;98739.31;4205035;28;20622;-89
2023/05/27 09:51:04;;;;;;;6.40;4.57;;;;;;;25.08;54.15;98726.25;4194108;28;20636;-87
2023/05/27 09:53:07;;;;;;;8.13;4.30;;;;;;;25.07;54.07;98729.09;4197106;28;20641;-88
2023/05/27 09:55:15;;;;;;;8.77;5.20;;;;;;;24.97;52.99;98720.44;4200888;28;20633;-87